sensor_id;sensor_type;location;lat;lon;timestamp;P1;durP1;ratioP1;P2;durP2;ratioP2
41881;SDS011;27562;47.524;12.404;2023-05-02T00:02:00;2.50;;;1.75;;
41881;SDS011;27562;47.524;12.404;2023-05-02T00:04:26;3.00;;;1.80;;
41881;SDS011;27562;47.524;12.404;2023-05-02T00:06:52;2.47;;;1.70;;
41881;SDS011;27562;47.524;12.404;2023-05-02T00:09:19;3.15;;;2.08;;
41881;SDS011;27562;47.524;12.404;2023-05-02T00:11:45;2.25;;;1.30;;
41881;SDS011;27562;47.524;12.404;2023-05-02T00:14:11;2.53;;;1.30;;
41881;SDS011;27562;47.524;12.404;2023-05-02T00:16:36;2.70;;;1.27;;
41881;SDS011;27562;47.524;12.404;2023-05-02T00:19:02;2.53;;;1.45;;
41881;SDS011;27562;47.524;12.404;2023-05-02T00:21:30;2.53;;;1.40;;
41881;SDS011;27562;47.524;12.404;2023-05-02T00:23:57;2.03;;;1.20;;
41881;SDS011;27562;47.524;12.404;2023-05-02T00:26:23;2.47;;;1.50;;
41881;SDS011;27562;47.524;12.404;2023-05-02T00:28:49;2.13;;;1.42;;
41881;SDS011;27562;47.524;12.404;2023-05-02T00:31:14;2.03;;;1.17;;
41881;SDS011;27562;47.524;12.404;2023-05-02T00:33:41;1.88;;;1.05;;
41881;SDS011;27562;47.524;12.404;2023-05-02T00:36:16;1.83;;;1.00;;
41881;SDS011;27562;47.524;12.404;2023-05-02T00:38:43;1.52;;;0.98;;
41881;SDS011;27562;47.524;12.404;2023-05-02T00:41:10;1.02;;;0.80;;
41881;SDS011;27562;47.524;12.404;2023-05-02T00:43:36;1.45;;;0.90;;
41881;SDS011;27562;47.524;12.404;2023-05-02T00:46:03;1.83;;;0.80;;
41881;SDS011;27562;47.524;12.404;2023-05-02T00:48:30;1.48;;;0.90;;
41881;SDS011;27562;47.524;12.404;2023-05-02T00:50:56;1.45;;;0.90;;
41881;SDS011;27562;47.524;12.404;2023-05-02T00:53:22;2.22;;;1.25;;
41881;SDS011;27562;47.524;12.404;2023-05-02T00:55:48;2.50;;;0.90;;
41881;SDS011;27562;47.524;12.404;2023-05-02T00:58:14;1.38;;;0.80;;
41881;SDS011;27562;47.524;12.404;2023-05-02T01:00:54;1.92;;;1.10;;
41881;SDS011;27562;47.524;12.404;2023-05-02T01:03:45;1.45;;;0.73;;
41881;SDS011;27562;47.524;12.404;2023-05-02T01:12:46;1.45;;;0.75;;
41881;SDS011;27562;47.524;12.404;2023-05-02T01:15:25;2.17;;;0.93;;
41881;SDS011;27562;47.524;12.404;2023-05-02T01:17:52;1.52;;;0.90;;
41881;SDS011;27562;47.524;12.404;2023-05-02T01:20:20;1.38;;;0.90;;
41881;SDS011;27562;47.524;12.404;2023-05-02T01:22:50;1.40;;;0.80;;
41881;SDS011;27562;47.524;12.404;2023-05-02T01:25:25;1.88;;;1.08;;
41881;SDS011;27562;47.524;12.404;2023-05-02T01:33:15;1.40;;;0.90;;
41881;SDS011;27562;47.524;12.404;2023-05-02T01:35:42;1.52;;;1.00;;
41881;SDS011;27562;47.524;12.404;2023-05-02T01:38:12;2.05;;;0.88;;
41881;SDS011;27562;47.524;12.404;2023-05-02T01:40:39;1.20;;;0.80;;
41881;SDS011;27562;47.524;12.404;2023-05-02T01:43:09;1.40;;;0.80;;
41881;SDS011;27562;47.524;12.404;2023-05-02T01:45:36;1.30;;;0.90;;
41881;SDS011;27562;47.524;12.404;2023-05-02T01:48:05;1.50;;;0.93;;
41881;SDS011;27562;47.524;12.404;2023-05-02T01:50:33;1.75;;;0.75;;
41881;SDS011;27562;47.524;12.404;2023-05-02T01:53:00;1.05;;;0.75;;
41881;SDS011;27562;47.524;12.404;2023-05-02T01:55:29;1.13;;;0.80;;
41881;SDS011;27562;47.524;12.404;2023-05-02T01:57:57;1.77;;;0.88;;
41881;SDS011;27562;47.524;12.404;2023-05-02T02:00:25;0.93;;;0.70;;
41881;SDS011;27562;47.524;12.404;2023-05-02T02:02:51;1.50;;;0.90;;
41881;SDS011;27562;47.524;12.404;2023-05-02T02:05:19;1.70;;;0.93;;
41881;SDS011;27562;47.524;12.404;2023-05-02T02:07:47;1.83;;;0.98;;
41881;SDS011;27562;47.524;12.404;2023-05-02T02:10:13;1.63;;;0.88;;
41881;SDS011;27562;47.524;12.404;2023-05-02T02:12:40;1.85;;;0.88;;
41881;SDS011;27562;47.524;12.404;2023-05-02T02:18:25;1.42;;;0.70;;
41881;SDS011;27562;47.524;12.404;2023-05-02T02:20:34;1.58;;;0.90;;
41881;SDS011;27562;47.524;12.404;2023-05-02T02:23:02;1.10;;;0.70;;
41881;SDS011;27562;47.524;12.404;2023-05-02T02:25:32;1.98;;;0.90;;
41881;SDS011;27562;47.524;12.404;2023-05-02T02:27:59;2.58;;;0.80;;
41881;SDS011;27562;47.524;12.404;2023-05-02T02:30:25;2.08;;;1.08;;
41881;SDS011;27562;47.524;12.404;2023-05-02T02:32:50;1.83;;;1.05;;
41881;SDS011;27562;47.524;12.404;2023-05-02T02:35:16;2.58;;;1.40;;
41881;SDS011;27562;47.524;12.404;2023-05-02T02:37:46;2.10;;;1.20;;
41881;SDS011;27562;47.524;12.404;2023-05-02T02:40:27;1.60;;;1.00;;
41881;SDS011;27562;47.524;12.404;2023-05-02T02:49:09;1.35;;;0.80;;
41881;SDS011;27562;47.524;12.404;2023-05-02T02:51:30;2.10;;;0.90;;
41881;SDS011;27562;47.524;12.404;2023-05-02T02:54:10;1.50;;;0.80;;
41881;SDS011;27562;47.524;12.404;2023-05-02T02:57:06;2.05;;;1.00;;
41881;SDS011;27562;47.524;12.404;2023-05-02T03:00:18;1.38;;;0.82;;
41881;SDS011;27562;47.524;12.404;2023-05-02T03:02:43;1.55;;;0.90;;
41881;SDS011;27562;47.524;12.404;2023-05-02T03:05:11;1.15;;;0.80;;
41881;SDS011;27562;47.524;12.404;2023-05-02T03:07:38;1.90;;;0.95;;
41881;SDS011;27562;47.524;12.404;2023-05-02T03:10:05;1.20;;;0.80;;
41881;SDS011;27562;47.524;12.404;2023-05-02T03:12:31;1.10;;;0.70;;
41881;SDS011;27562;47.524;12.404;2023-05-02T03:15:12;1.17;;;0.77;;
41881;SDS011;27562;47.524;12.404;2023-05-02T03:17:54;1.73;;;0.90;;
41881;SDS011;27562;47.524;12.404;2023-05-02T03:20:20;1.33;;;0.85;;
41881;SDS011;27562;47.524;12.404;2023-05-02T03:22:46;0.90;;;0.70;;
41881;SDS011;27562;47.524;12.404;2023-05-02T03:25:11;1.00;;;0.70;;
41881;SDS011;27562;47.524;12.404;2023-05-02T03:27:37;1.25;;;0.80;;
41881;SDS011;27562;47.524;12.404;2023-05-02T03:30:03;0.80;;;0.50;;
41881;SDS011;27562;47.524;12.404;2023-05-02T03:32:29;0.65;;;0.52;;
41881;SDS011;27562;47.524;12.404;2023-05-02T03:34:55;1.23;;;0.63;;
41881;SDS011;27562;47.524;12.404;2023-05-02T03:37:22;0.98;;;0.57;;
41881;SDS011;27562;47.524;12.404;2023-05-02T03:39:48;1.02;;;0.60;;
41881;SDS011;27562;47.524;12.404;2023-05-02T03:42:14;0.85;;;0.55;;
41881;SDS011;27562;47.524;12.404;2023-05-02T03:44:40;1.73;;;0.80;;
41881;SDS011;27562;47.524;12.404;2023-05-02T03:47:05;1.75;;;1.02;;
41881;SDS011;27562;47.524;12.404;2023-05-02T03:49:34;2.80;;;1.30;;
41881;SDS011;27562;47.524;12.404;2023-05-02T03:52:00;2.35;;;1.30;;
41881;SDS011;27562;47.524;12.404;2023-05-02T03:54:26;3.00;;;1.20;;
41881;SDS011;27562;47.524;12.404;2023-05-02T03:56:55;1.33;;;0.80;;
41881;SDS011;27562;47.524;12.404;2023-05-02T03:59:22;1.70;;;0.90;;
41881;SDS011;27562;47.524;12.404;2023-05-02T04:01:48;3.30;;;1.60;;
41881;SDS011;27562;47.524;12.404;2023-05-02T04:04:16;3.15;;;1.90;;
41881;SDS011;27562;47.524;12.404;2023-05-02T04:06:42;5.50;;;1.52;;
41881;SDS011;27562;47.524;12.404;2023-05-02T04:09:07;2.13;;;1.30;;
41881;SDS011;27562;47.524;12.404;2023-05-02T04:11:33;2.67;;;1.70;;
41881;SDS011;27562;47.524;12.404;2023-05-02T04:13:59;2.97;;;2.03;;
41881;SDS011;27562;47.524;12.404;2023-05-02T04:16:24;3.25;;;2.03;;
41881;SDS011;27562;47.524;12.404;2023-05-02T04:18:50;2.53;;;2.00;;
41881;SDS011;27562;47.524;12.404;2023-05-02T04:21:16;2.50;;;1.58;;
41881;SDS011;27562;47.524;12.404;2023-05-02T04:23:42;2.40;;;1.35;;
41881;SDS011;27562;47.524;12.404;2023-05-02T04:26:07;3.33;;;1.83;;
41881;SDS011;27562;47.524;12.404;2023-05-02T04:28:34;2.47;;;1.60;;
41881;SDS011;27562;47.524;12.404;2023-05-02T04:31:00;2.88;;;1.90;;
41881;SDS011;27562;47.524;12.404;2023-05-02T04:33:27;2.78;;;2.05;;
41881;SDS011;27562;47.524;12.404;2023-05-02T04:35:52;4.53;;;2.53;;
41881;SDS011;27562;47.524;12.404;2023-05-02T04:38:18;5.43;;;2.90;;
41881;SDS011;27562;47.524;12.404;2023-05-02T04:40:44;3.20;;;2.13;;
41881;SDS011;27562;47.524;12.404;2023-05-02T04:43:10;2.33;;;1.65;;
41881;SDS011;27562;47.524;12.404;2023-05-02T04:45:35;2.47;;;1.60;;
41881;SDS011;27562;47.524;12.404;2023-05-02T04:48:02;2.83;;;1.63;;
41881;SDS011;27562;47.524;12.404;2023-05-02T04:50:28;2.78;;;1.80;;
41881;SDS011;27562;47.524;12.404;2023-05-02T04:52:54;2.53;;;1.92;;
41881;SDS011;27562;47.524;12.404;2023-05-02T04:55:19;4.72;;;2.88;;
41881;SDS011;27562;47.524;12.404;2023-05-02T04:57:45;7.32;;;4.50;;
41881;SDS011;27562;47.524;12.404;2023-05-02T05:00:15;6.35;;;3.67;;
41881;SDS011;27562;47.524;12.404;2023-05-02T05:02:41;6.05;;;2.60;;
41881;SDS011;27562;47.524;12.404;2023-05-02T05:05:07;3.28;;;2.20;;
41881;SDS011;27562;47.524;12.404;2023-05-02T05:07:33;3.78;;;2.60;;
41881;SDS011;27562;47.524;12.404;2023-05-02T05:10:01;3.97;;;3.58;;
41881;SDS011;27562;47.524;12.404;2023-05-02T05:12:27;2.72;;;2.20;;
41881;SDS011;27562;47.524;12.404;2023-05-02T05:14:53;2.53;;;1.60;;
41881;SDS011;27562;47.524;12.404;2023-05-02T05:17:18;2.30;;;1.58;;
41881;SDS011;27562;47.524;12.404;2023-05-02T05:19:44;3.15;;;2.05;;
41881;SDS011;27562;47.524;12.404;2023-05-02T05:22:10;2.03;;;1.20;;
41881;SDS011;27562;47.524;12.404;2023-05-02T05:24:35;2.97;;;1.30;;
41881;SDS011;27562;47.524;12.404;2023-05-02T05:27:02;2.65;;;1.55;;
41881;SDS011;27562;47.524;12.404;2023-05-02T05:29:29;2.40;;;1.70;;
41881;SDS011;27562;47.524;12.404;2023-05-02T05:31:56;1.92;;;1.30;;
41881;SDS011;27562;47.524;12.404;2023-05-02T05:34:22;2.20;;;1.40;;
41881;SDS011;27562;47.524;12.404;2023-05-02T05:36:49;4.22;;;1.92;;
41881;SDS011;27562;47.524;12.404;2023-05-02T05:39:14;3.97;;;2.13;;
41881;SDS011;27562;47.524;12.404;2023-05-02T05:41:40;4.05;;;1.70;;
41881;SDS011;27562;47.524;12.404;2023-05-02T05:44:07;3.17;;;1.70;;
41881;SDS011;27562;47.524;12.404;2023-05-02T05:46:32;2.47;;;1.50;;
41881;SDS011;27562;47.524;12.404;2023-05-02T05:48:58;2.80;;;1.60;;
41881;SDS011;27562;47.524;12.404;2023-05-02T05:51:24;2.25;;;1.25;;
41881;SDS011;27562;47.524;12.404;2023-05-02T05:53:51;2.60;;;1.40;;
41881;SDS011;27562;47.524;12.404;2023-05-02T05:56:17;2.80;;;1.60;;
41881;SDS011;27562;47.524;12.404;2023-05-02T05:58:43;2.33;;;1.33;;
41881;SDS011;27562;47.524;12.404;2023-05-02T06:01:09;2.38;;;1.30;;
41881;SDS011;27562;47.524;12.404;2023-05-02T06:03:35;1.88;;;1.20;;
41881;SDS011;27562;47.524;12.404;2023-05-02T06:06:00;2.65;;;1.00;;
41881;SDS011;27562;47.524;12.404;2023-05-02T06:08:26;3.70;;;1.40;;
41881;SDS011;27562;47.524;12.404;2023-05-02T06:10:52;2.20;;;1.23;;
41881;SDS011;27562;47.524;12.404;2023-05-02T06:13:17;2.97;;;1.50;;
41881;SDS011;27562;47.524;12.404;2023-05-02T06:15:43;1.90;;;1.20;;
41881;SDS011;27562;47.524;12.404;2023-05-02T06:18:09;1.48;;;0.95;;
41881;SDS011;27562;47.524;12.404;2023-05-02T06:20:35;2.50;;;1.00;;
41881;SDS011;27562;47.524;12.404;2023-05-02T06:23:01;1.38;;;0.88;;
41881;SDS011;27562;47.524;12.404;2023-05-02T06:25:26;1.50;;;0.95;;
41881;SDS011;27562;47.524;12.404;2023-05-02T06:27:53;2.00;;;1.00;;
41881;SDS011;27562;47.524;12.404;2023-05-02T06:30:18;1.73;;;1.23;;
41881;SDS011;27562;47.524;12.404;2023-05-02T06:32:44;1.58;;;0.90;;
41881;SDS011;27562;47.524;12.404;2023-05-02T06:35:10;1.35;;;0.90;;
41881;SDS011;27562;47.524;12.404;2023-05-02T06:37:36;1.30;;;0.80;;
41881;SDS011;27562;47.524;12.404;2023-05-02T06:40:02;1.20;;;0.80;;
41881;SDS011;27562;47.524;12.404;2023-05-02T06:42:29;2.00;;;1.40;;
41881;SDS011;27562;47.524;12.404;2023-05-02T06:44:55;1.70;;;1.15;;
41881;SDS011;27562;47.524;12.404;2023-05-02T06:47:20;2.67;;;1.42;;
41881;SDS011;27562;47.524;12.404;2023-05-02T06:49:48;3.10;;;1.38;;
41881;SDS011;27562;47.524;12.404;2023-05-02T06:52:17;2.10;;;1.48;;
41881;SDS011;27562;47.524;12.404;2023-05-02T06:54:43;2.05;;;1.40;;
41881;SDS011;27562;47.524;12.404;2023-05-02T06:57:09;3.08;;;1.95;;
41881;SDS011;27562;47.524;12.404;2023-05-02T06:59:35;2.97;;;2.33;;
41881;SDS011;27562;47.524;12.404;2023-05-02T07:02:01;3.00;;;2.08;;
41881;SDS011;27562;47.524;12.404;2023-05-02T07:04:27;2.00;;;1.30;;
41881;SDS011;27562;47.524;12.404;2023-05-02T07:06:52;3.40;;;1.08;;
41881;SDS011;27562;47.524;12.404;2023-05-02T07:09:18;2.42;;;1.48;;
41881;SDS011;27562;47.524;12.404;2023-05-02T07:11:44;1.35;;;0.85;;
41881;SDS011;27562;47.524;12.404;2023-05-02T07:14:09;1.42;;;0.75;;
41881;SDS011;27562;47.524;12.404;2023-05-02T07:16:35;1.00;;;0.60;;
41881;SDS011;27562;47.524;12.404;2023-05-02T07:19:01;1.38;;;0.88;;
41881;SDS011;27562;47.524;12.404;2023-05-02T07:21:28;1.25;;;0.77;;
41881;SDS011;27562;47.524;12.404;2023-05-02T07:23:54;2.55;;;0.80;;
41881;SDS011;27562;47.524;12.404;2023-05-02T07:26:21;1.27;;;0.68;;
41881;SDS011;27562;47.524;12.404;2023-05-02T07:28:48;1.10;;;0.60;;
41881;SDS011;27562;47.524;12.404;2023-05-02T07:31:13;1.00;;;0.63;;
41881;SDS011;27562;47.524;12.404;2023-05-02T07:33:39;3.05;;;2.05;;
41881;SDS011;27562;47.524;12.404;2023-05-02T07:36:05;2.92;;;2.10;;
41881;SDS011;27562;47.524;12.404;2023-05-02T07:38:31;4.60;;;2.78;;
41881;SDS011;27562;47.524;12.404;2023-05-02T07:40:57;6.22;;;5.22;;
41881;SDS011;27562;47.524;12.404;2023-05-02T07:43:24;5.82;;;4.35;;
41881;SDS011;27562;47.524;12.404;2023-05-02T07:45:50;3.70;;;2.65;;
41881;SDS011;27562;47.524;12.404;2023-05-02T07:48:16;2.65;;;1.77;;
41881;SDS011;27562;47.524;12.404;2023-05-02T07:50:41;1.92;;;1.20;;
41881;SDS011;27562;47.524;12.404;2023-05-02T07:53:07;2.75;;;1.20;;
41881;SDS011;27562;47.524;12.404;2023-05-02T07:55:33;1.80;;;1.20;;
41881;SDS011;27562;47.524;12.404;2023-05-02T07:57:59;5.75;;;3.92;;
41881;SDS011;27562;47.524;12.404;2023-05-02T08:00:25;6.70;;;3.97;;
41881;SDS011;27562;47.524;12.404;2023-05-02T08:02:50;4.90;;;3.30;;
41881;SDS011;27562;47.524;12.404;2023-05-02T08:05:16;13.70;;;9.48;;
41881;SDS011;27562;47.524;12.404;2023-05-02T08:07:42;24.42;;;11.90;;
41881;SDS011;27562;47.524;12.404;2023-05-02T08:10:07;14.18;;;7.97;;
41881;SDS011;27562;47.524;12.404;2023-05-02T08:12:37;19.58;;;9.02;;
41881;SDS011;27562;47.524;12.404;2023-05-02T08:15:05;28.00;;;12.65;;
41881;SDS011;27562;47.524;12.404;2023-05-02T08:17:35;24.40;;;10.77;;
41881;SDS011;27562;47.524;12.404;2023-05-02T08:20:01;16.10;;;6.82;;
41881;SDS011;27562;47.524;12.404;2023-05-02T08:22:27;13.07;;;5.72;;
41881;SDS011;27562;47.524;12.404;2023-05-02T08:24:53;7.55;;;3.88;;
41881;SDS011;27562;47.524;12.404;2023-05-02T08:27:18;4.50;;;1.75;;
41881;SDS011;27562;47.524;12.404;2023-05-02T08:29:44;3.80;;;1.77;;
41881;SDS011;27562;47.524;12.404;2023-05-02T08:32:10;3.38;;;2.20;;
41881;SDS011;27562;47.524;12.404;2023-05-02T08:34:36;3.90;;;2.53;;
41881;SDS011;27562;47.524;12.404;2023-05-02T08:37:06;2.83;;;1.55;;
41881;SDS011;27562;47.524;12.404;2023-05-02T08:39:33;2.63;;;1.75;;
41881;SDS011;27562;47.524;12.404;2023-05-02T08:41:59;2.17;;;1.30;;
41881;SDS011;27562;47.524;12.404;2023-05-02T08:44:25;1.98;;;1.17;;
41881;SDS011;27562;47.524;12.404;2023-05-02T08:46:51;2.25;;;1.20;;
41881;SDS011;27562;47.524;12.404;2023-05-02T08:49:17;2.75;;;1.20;;
41881;SDS011;27562;47.524;12.404;2023-05-02T08:51:45;1.88;;;1.20;;
41881;SDS011;27562;47.524;12.404;2023-05-02T08:54:15;1.80;;;1.20;;
41881;SDS011;27562;47.524;12.404;2023-05-02T08:56:42;1.65;;;1.02;;
41881;SDS011;27562;47.524;12.404;2023-05-02T08:59:07;1.58;;;1.17;;
41881;SDS011;27562;47.524;12.404;2023-05-02T09:01:33;3.05;;;1.00;;
41881;SDS011;27562;47.524;12.404;2023-05-02T09:04:01;1.38;;;0.90;;
41881;SDS011;27562;47.524;12.404;2023-05-02T09:06:28;4.32;;;1.80;;
41881;SDS011;27562;47.524;12.404;2023-05-02T09:08:54;2.15;;;1.27;;
41881;SDS011;27562;47.524;12.404;2023-05-02T09:11:24;2.57;;;1.33;;
41881;SDS011;27562;47.524;12.404;2023-05-02T09:13:50;3.38;;;1.40;;
41881;SDS011;27562;47.524;12.404;2023-05-02T09:16:20;2.53;;;1.17;;
41881;SDS011;27562;47.524;12.404;2023-05-02T09:18:54;2.10;;;1.20;;
41881;SDS011;27562;47.524;12.404;2023-05-02T09:21:22;2.75;;;1.10;;
41881;SDS011;27562;47.524;12.404;2023-05-02T09:24:01;2.28;;;1.35;;
41881;SDS011;27562;47.524;12.404;2023-05-02T09:26:38;8.80;;;4.93;;
41881;SDS011;27562;47.524;12.404;2023-05-02T09:29:04;6.40;;;3.70;;
41881;SDS011;27562;47.524;12.404;2023-05-02T09:31:31;2.35;;;1.73;;
41881;SDS011;27562;47.524;12.404;2023-05-02T09:34:11;2.80;;;1.27;;
41881;SDS011;27562;47.524;12.404;2023-05-02T09:36:41;1.80;;;1.20;;
41881;SDS011;27562;47.524;12.404;2023-05-02T09:39:09;2.20;;;1.50;;
41881;SDS011;27562;47.524;12.404;2023-05-02T09:41:39;2.95;;;1.95;;
41881;SDS011;27562;47.524;12.404;2023-05-02T09:44:12;2.40;;;1.67;;
41881;SDS011;27562;47.524;12.404;2023-05-02T09:46:46;2.28;;;1.40;;
41881;SDS011;27562;47.524;12.404;2023-05-02T09:49:13;2.88;;;1.35;;
41881;SDS011;27562;47.524;12.404;2023-05-02T09:51:44;3.30;;;1.63;;
41881;SDS011;27562;47.524;12.404;2023-05-02T09:54:11;4.28;;;2.65;;
41881;SDS011;27562;47.524;12.404;2023-05-02T09:59:21;3.47;;;1.80;;
41881;SDS011;27562;47.524;12.404;2023-05-02T10:01:54;2.38;;;1.50;;
41881;SDS011;27562;47.524;12.404;2023-05-02T10:04:21;2.72;;;1.60;;
41881;SDS011;27562;47.524;12.404;2023-05-02T10:06:47;3.13;;;1.85;;
41881;SDS011;27562;47.524;12.404;2023-05-02T10:09:16;3.83;;;1.73;;
41881;SDS011;27562;47.524;12.404;2023-05-02T10:11:44;4.28;;;1.58;;
41881;SDS011;27562;47.524;12.404;2023-05-02T10:14:11;5.65;;;1.90;;
41881;SDS011;27562;47.524;12.404;2023-05-02T10:16:40;2.72;;;1.88;;
41881;SDS011;27562;47.524;12.404;2023-05-02T10:19:13;2.97;;;1.95;;
41881;SDS011;27562;47.524;12.404;2023-05-02T10:21:47;2.35;;;1.38;;
41881;SDS011;27562;47.524;12.404;2023-05-02T10:24:14;2.03;;;1.13;;
41881;SDS011;27562;47.524;12.404;2023-05-02T10:26:41;2.17;;;1.40;;
41881;SDS011;27562;47.524;12.404;2023-05-02T10:29:08;2.45;;;1.52;;
41881;SDS011;27562;47.524;12.404;2023-05-02T10:31:35;5.80;;;1.75;;
41881;SDS011;27562;47.524;12.404;2023-05-02T10:34:03;3.58;;;1.77;;
41881;SDS011;27562;47.524;12.404;2023-05-02T10:36:31;2.47;;;1.70;;
41881;SDS011;27562;47.524;12.404;2023-05-02T10:38:57;2.30;;;1.63;;
41881;SDS011;27562;47.524;12.404;2023-05-02T10:41:25;3.38;;;1.92;;
41881;SDS011;27562;47.524;12.404;2023-05-02T10:43:53;2.67;;;1.80;;
41881;SDS011;27562;47.524;12.404;2023-05-02T10:46:35;2.72;;;1.80;;
41881;SDS011;27562;47.524;12.404;2023-05-02T10:49:08;3.05;;;2.33;;
41881;SDS011;27562;47.524;12.404;2023-05-02T10:51:36;2.55;;;2.00;;
41881;SDS011;27562;47.524;12.404;2023-05-02T11:02:03;7.80;;;6.22;;
41881;SDS011;27562;47.524;12.404;2023-05-02T11:04:57;6.43;;;4.70;;
41881;SDS011;27562;47.524;12.404;2023-05-02T11:07:28;3.60;;;2.88;;
41881;SDS011;27562;47.524;12.404;2023-05-02T11:12:43;2.80;;;1.90;;
41881;SDS011;27562;47.524;12.404;2023-05-02T11:20:31;3.03;;;2.20;;
41881;SDS011;27562;47.524;12.404;2023-05-02T11:22:59;2.65;;;1.65;;
41881;SDS011;27562;47.524;12.404;2023-05-02T11:25:56;4.20;;;1.60;;
41881;SDS011;27562;47.524;12.404;2023-05-02T11:31:37;4.07;;;2.00;;
41881;SDS011;27562;47.524;12.404;2023-05-02T11:33:55;3.58;;;2.30;;
41881;SDS011;27562;47.524;12.404;2023-05-02T11:38:58;5.80;;;3.80;;
41881;SDS011;27562;47.524;12.404;2023-05-02T11:41:42;5.85;;;2.85;;
41881;SDS011;27562;47.524;12.404;2023-05-02T11:44:08;4.53;;;2.53;;
41881;SDS011;27562;47.524;12.404;2023-05-02T11:46:37;5.75;;;3.05;;
41881;SDS011;27562;47.524;12.404;2023-05-02T11:49:04;3.75;;;2.35;;
41881;SDS011;27562;47.524;12.404;2023-05-02T11:51:31;3.40;;;2.25;;
41881;SDS011;27562;47.524;12.404;2023-05-02T11:53:59;3.13;;;2.25;;
41881;SDS011;27562;47.524;12.404;2023-05-02T11:56:25;3.35;;;2.17;;
41881;SDS011;27562;47.524;12.404;2023-05-02T11:59:00;5.65;;;2.75;;
41881;SDS011;27562;47.524;12.404;2023-05-02T12:01:27;5.00;;;3.10;;
41881;SDS011;27562;47.524;12.404;2023-05-02T12:04:03;3.75;;;2.50;;
41881;SDS011;27562;47.524;12.404;2023-05-02T12:06:31;3.35;;;1.80;;
41881;SDS011;27562;47.524;12.404;2023-05-02T12:09:07;3.58;;;2.20;;
41881;SDS011;27562;47.524;12.404;2023-05-02T12:11:34;4.03;;;2.40;;
41881;SDS011;27562;47.524;12.404;2023-05-02T12:14:02;4.75;;;2.78;;
41881;SDS011;27562;47.524;12.404;2023-05-02T12:16:28;4.63;;;3.67;;
41881;SDS011;27562;47.524;12.404;2023-05-02T12:18:54;4.25;;;3.03;;
41881;SDS011;27562;47.524;12.404;2023-05-02T12:21:23;3.85;;;2.88;;
41881;SDS011;27562;47.524;12.404;2023-05-02T12:23:50;5.22;;;3.08;;
41881;SDS011;27562;47.524;12.404;2023-05-02T12:26:20;4.97;;;3.08;;
41881;SDS011;27562;47.524;12.404;2023-05-02T12:28:53;4.72;;;3.00;;
41881;SDS011;27562;47.524;12.404;2023-05-02T12:31:20;4.55;;;2.88;;
41881;SDS011;27562;47.524;12.404;2023-05-02T12:33:46;4.35;;;2.50;;
41881;SDS011;27562;47.524;12.404;2023-05-02T12:36:14;2.90;;;2.28;;
41881;SDS011;27562;47.524;12.404;2023-05-02T12:38:40;4.22;;;2.08;;
41881;SDS011;27562;47.524;12.404;2023-05-02T12:41:13;3.70;;;2.50;;
41881;SDS011;27562;47.524;12.404;2023-05-02T12:43:44;3.05;;;2.35;;
41881;SDS011;27562;47.524;12.404;2023-05-02T12:46:11;3.33;;;2.30;;
41881;SDS011;27562;47.524;12.404;2023-05-02T12:48:36;4.82;;;2.70;;
41881;SDS011;27562;47.524;12.404;2023-05-02T12:51:02;3.95;;;2.72;;
41881;SDS011;27562;47.524;12.404;2023-05-02T12:53:41;3.42;;;2.10;;
41881;SDS011;27562;47.524;12.404;2023-05-02T12:56:08;3.63;;;2.08;;
41881;SDS011;27562;47.524;12.404;2023-05-02T12:58:44;2.95;;;2.00;;
41881;SDS011;27562;47.524;12.404;2023-05-02T13:01:11;3.63;;;2.30;;
41881;SDS011;27562;47.524;12.404;2023-05-02T13:03:41;3.53;;;2.70;;
41881;SDS011;27562;47.524;12.404;2023-05-02T13:06:07;5.10;;;2.60;;
41881;SDS011;27562;47.524;12.404;2023-05-02T13:08:33;3.67;;;2.40;;
41881;SDS011;27562;47.524;12.404;2023-05-02T13:11:00;3.60;;;2.47;;
41881;SDS011;27562;47.524;12.404;2023-05-02T13:13:26;5.85;;;2.78;;
41881;SDS011;27562;47.524;12.404;2023-05-02T13:15:53;4.30;;;2.65;;
41881;SDS011;27562;47.524;12.404;2023-05-02T13:18:19;4.13;;;2.78;;
41881;SDS011;27562;47.524;12.404;2023-05-02T13:20:44;4.00;;;2.80;;
41881;SDS011;27562;47.524;12.404;2023-05-02T13:23:10;4.28;;;2.58;;
41881;SDS011;27562;47.524;12.404;2023-05-02T13:25:36;4.22;;;3.15;;
41881;SDS011;27562;47.524;12.404;2023-05-02T13:28:02;3.95;;;2.70;;
41881;SDS011;27562;47.524;12.404;2023-05-02T13:30:28;3.90;;;2.92;;
41881;SDS011;27562;47.524;12.404;2023-05-02T13:32:54;5.05;;;3.30;;
41881;SDS011;27562;47.524;12.404;2023-05-02T13:35:22;4.43;;;3.40;;
41881;SDS011;27562;47.524;12.404;2023-05-02T13:37:48;5.60;;;3.45;;
41881;SDS011;27562;47.524;12.404;2023-05-02T13:40:15;4.32;;;3.30;;
41881;SDS011;27562;47.524;12.404;2023-05-02T13:42:40;4.93;;;3.85;;
41881;SDS011;27562;47.524;12.404;2023-05-02T13:45:06;3.80;;;3.05;;
41881;SDS011;27562;47.524;12.404;2023-05-02T13:47:32;3.90;;;2.90;;
41881;SDS011;27562;47.524;12.404;2023-05-02T13:49:58;3.92;;;2.53;;
41881;SDS011;27562;47.524;12.404;2023-05-02T13:52:24;3.80;;;2.58;;
41881;SDS011;27562;47.524;12.404;2023-05-02T13:54:50;3.35;;;2.40;;
41881;SDS011;27562;47.524;12.404;2023-05-02T13:57:15;3.75;;;2.78;;
41881;SDS011;27562;47.524;12.404;2023-05-02T13:59:41;5.22;;;2.38;;
41881;SDS011;27562;47.524;12.404;2023-05-02T14:02:06;4.55;;;2.95;;
41881;SDS011;27562;47.524;12.404;2023-05-02T14:04:32;3.10;;;2.15;;
41881;SDS011;27562;47.524;12.404;2023-05-02T14:06:58;3.63;;;2.72;;
41881;SDS011;27562;47.524;12.404;2023-05-02T14:09:24;4.72;;;2.67;;
41881;SDS011;27562;47.524;12.404;2023-05-02T14:11:50;4.10;;;3.20;;
41881;SDS011;27562;47.524;12.404;2023-05-02T14:14:15;5.55;;;3.45;;
41881;SDS011;27562;47.524;12.404;2023-05-02T14:16:41;5.13;;;3.10;;
41881;SDS011;27562;47.524;12.404;2023-05-02T14:19:07;4.20;;;3.08;;
41881;SDS011;27562;47.524;12.404;2023-05-02T14:21:32;4.03;;;2.97;;
41881;SDS011;27562;47.524;12.404;2023-05-02T14:23:58;4.30;;;3.30;;
41881;SDS011;27562;47.524;12.404;2023-05-02T14:26:24;3.90;;;2.85;;
41881;SDS011;27562;47.524;12.404;2023-05-02T14:28:50;5.03;;;3.20;;
41881;SDS011;27562;47.524;12.404;2023-05-02T14:31:15;4.22;;;3.08;;
41881;SDS011;27562;47.524;12.404;2023-05-02T14:33:41;4.85;;;3.50;;
41881;SDS011;27562;47.524;12.404;2023-05-02T14:36:07;4.88;;;3.78;;
41881;SDS011;27562;47.524;12.404;2023-05-02T14:38:33;5.38;;;3.33;;
41881;SDS011;27562;47.524;12.404;2023-05-02T14:40:58;5.05;;;3.53;;
41881;SDS011;27562;47.524;12.404;2023-05-02T14:43:26;4.03;;;3.10;;
41881;SDS011;27562;47.524;12.404;2023-05-02T14:45:52;3.95;;;3.10;;
41881;SDS011;27562;47.524;12.404;2023-05-02T14:48:18;4.22;;;2.47;;
41881;SDS011;27562;47.524;12.404;2023-05-02T14:50:43;3.50;;;2.50;;
41881;SDS011;27562;47.524;12.404;2023-05-02T14:53:09;5.53;;;3.78;;
41881;SDS011;27562;47.524;12.404;2023-05-02T14:55:36;4.82;;;3.33;;
41881;SDS011;27562;47.524;12.404;2023-05-02T14:58:03;5.15;;;3.67;;
41881;SDS011;27562;47.524;12.404;2023-05-02T15:00:35;4.30;;;3.00;;
41881;SDS011;27562;47.524;12.404;2023-05-02T15:03:05;3.72;;;2.72;;
41881;SDS011;27562;47.524;12.404;2023-05-02T15:05:31;6.38;;;4.40;;
41881;SDS011;27562;47.524;12.404;2023-05-02T15:07:57;14.60;;;9.48;;
41881;SDS011;27562;47.524;12.404;2023-05-02T15:10:23;18.23;;;11.55;;
41881;SDS011;27562;47.524;12.404;2023-05-02T15:12:49;26.70;;;18.15;;
41881;SDS011;27562;47.524;12.404;2023-05-02T15:15:18;21.42;;;14.70;;
41881;SDS011;27562;47.524;12.404;2023-05-02T15:17:49;12.80;;;9.32;;
41881;SDS011;27562;47.524;12.404;2023-05-02T15:20:15;10.32;;;6.95;;
41881;SDS011;27562;47.524;12.404;2023-05-02T15:22:41;11.45;;;8.68;;